Wetterdaten: aktuell Samstag, 24.07.2021 20:06
Datum Zeit Temp. A. Temp. 5cm Feuchte A. Luftdruck Regen Wind Richtung Richtung Taupunkt Windchill Windben Empfang
24.07.2021 20:06 24,7 C 22,2 C 67 % 1009,6 hPa 0,0 l/m 6,8 km/h (2 Bft) N 9 18,1 C 24,6 C 11,3 km/h (2 Bft) 100 %
24.07.2021 20:04 24,7 C 22,8 C 67 % 1009,7 hPa 0,0 l/m 5,5 km/h (1 Bft) N-NO 22 18,1 C 24,7 C 8,0 km/h (2 Bft) 98 %
24.07.2021 20:02 24,7 C 22,8 C 67 % 1009,7 hPa 0,0 l/m 6,8 km/h (2 Bft) N-NO 25 18,1 C 24,6 C 8,0 km/h (2 Bft) 96 %
24.07.2021 20:00 24,8 C 22,8 C 66 % 1009,7 hPa 0,0 l/m 5,8 km/h (2 Bft) N-NO 20 18,0 C 24,8 C 8,0 km/h (2 Bft) 100 %
24.07.2021 19:58 24,8 C 22,8 C 67 % 1009,8 hPa 0,0 l/m 6,9 km/h (2 Bft) N-NO 13 18,2 C 24,7 C 11,3 km/h (2 Bft) 98 %
24.07.2021 19:56 24,9 C 23,3 C 67 % 1009,9 hPa 0,0 l/m 6,7 km/h (2 Bft) NO 34 18,3 C 24,8 C 8,0 km/h (2 Bft) 100 %
24.07.2021 19:54 25,0 C 23,3 C 66 % 1009,9 hPa 0,0 l/m 7,3 km/h (2 Bft) NO 34 18,2 C 24,8 C 9,7 km/h (2 Bft) 100 %
24.07.2021 19:52 25,1 C 23,3 C 66 % 1010,0 hPa 0,0 l/m 7,4 km/h (2 Bft) N-NO 28 18,3 C 24,9 C 11,3 km/h (2 Bft) 100 %
24.07.2021 19:50 25,1 C 23,3 C 66 % 1010,0 hPa 0,0 l/m 8,2 km/h (2 Bft) N-NO 20 18,3 C 24,7 C 14,5 km/h (3 Bft) 100 %
24.07.2021 19:48 25,1 C 23,3 C 66 % 1010,0 hPa 0,0 l/m 7,3 km/h (2 Bft) NO 36 18,3 C 24,9 C 12,9 km/h (3 Bft) 100 %
24.07.2021 19:46 25,1 C 23,3 C 67 % 1010,1 hPa 0,0 l/m 7,9 km/h (2 Bft) N-NO 14 18,5 C 24,7 C 11,3 km/h (2 Bft) 100 %
24.07.2021 19:44 25,1 C 23,3 C 67 % 1010,1 hPa 0,0 l/m 7,5 km/h (2 Bft) NO 44 18,5 C 24,8 C 11,3 km/h (2 Bft) 100 %
24.07.2021 19:42 25,3 C 23,3 C 66 % 1010,0 hPa 0,0 l/m 5,9 km/h (2 Bft) N-NO 23 18,5 C 25,3 C 8,0 km/h (2 Bft) 100 %
24.07.2021 19:40 25,4 C 23,3 C 65 % 1010,1 hPa 0,0 l/m 5,4 km/h (1 Bft) N-NO 15 18,3 C 25,4 C 8,0 km/h (2 Bft) 100 %
24.07.2021 19:38 25,5 C 23,3 C 65 % 1010,1 hPa 0,0 l/m 6,4 km/h (2 Bft) N-NO 28 18,4 C 25,5 C 8,0 km/h (2 Bft) 100 %
24.07.2021 19:36 25,5 C 23,3 C 64 % 1010,1 hPa 0,0 l/m 6,0 km/h (2 Bft) N-NO 19 18,2 C 25,5 C 11,3 km/h (2 Bft) 96 %
24.07.2021 19:34 25,5 C 23,9 C 64 % 1010,1 hPa 0,0 l/m 5,6 km/h (1 Bft) N 9 18,2 C 25,5 C 8,0 km/h (2 Bft) 100 %
24.07.2021 19:32 25,5 C 23,9 C 64 % 1010,1 hPa 0,0 l/m 5,4 km/h (1 Bft) N-NO 13 18,2 C 25,5 C 8,0 km/h (2 Bft) 97 %
24.07.2021 19:30 25,5 C 23,9 C 64 % 1010,1 hPa 0,0 l/m 5,5 km/h (1 Bft) N-NO 13 18,2 C 25,5 C 8,0 km/h (2 Bft) 100 %
24.07.2021 19:28 25,5 C 23,9 C 64 % 1010,0 hPa 0,0 l/m 5,0 km/h (1 Bft) N 10 18,2 C 25,5 C 6,4 km/h (2 Bft) 98 %
24.07.2021 19:26 25,6 C 23,9 C 64 % 1009,9 hPa 0,0 l/m 5,9 km/h (2 Bft) N-NO 22 18,3 C 25,6 C 8,0 km/h (2 Bft) 100 %
24.07.2021 19:24 25,6 C 23,9 C 64 % 1009,9 hPa 0,0 l/m 6,0 km/h (2 Bft) N-NO 19 18,3 C 25,6 C 8,0 km/h (2 Bft) 100 %
24.07.2021 19:22 25,6 C 23,9 C 64 % 1009,8 hPa 0,0 l/m 6,7 km/h (2 Bft) N-NO 17 18,3 C 25,5 C 8,0 km/h (2 Bft) 100 %
24.07.2021 19:20 25,6 C 23,9 C 63 % 1009,8 hPa 0,0 l/m 7,5 km/h (2 Bft) N 9 18,0 C 25,3 C 11,3 km/h (2 Bft) 100 %
24.07.2021 19:18 25,7 C 23,9 C 63 % 1009,9 hPa 0,0 l/m 6,8 km/h (2 Bft) N-NO 26 18,1 C 25,6 C 11,3 km/h (2 Bft) 100 %
24.07.2021 19:16 25,9 C 23,9 C 62 % 1009,9 hPa 0,0 l/m 7,0 km/h (2 Bft) N-NO 26 18,0 C 25,8 C 9,7 km/h (2 Bft) 98 %
24.07.2021 19:14 26,0 C 23,9 C 62 % 1009,9 hPa 0,0 l/m 7,3 km/h (2 Bft) N-NO 24 18,1 C 25,8 C 12,9 km/h (3 Bft) 100 %
24.07.2021 19:12 26,0 C 23,9 C 61 % 1010,0 hPa 0,0 l/m 6,6 km/h (2 Bft) N 355 17,9 C 26,0 C 9,7 km/h (2 Bft) 100 %
24.07.2021 19:10 26,0 C 23,9 C 61 % 1010,0 hPa 0,0 l/m 5,7 km/h (1 Bft) N 355 17,9 C 26,0 C 8,0 km/h (2 Bft) 100 %
24.07.2021 19:08 25,9 C 23,9 C 60 % 1010,0 hPa 0,0 l/m 6,6 km/h (2 Bft) N-NO 14 17,5 C 25,9 C 9,7 km/h (2 Bft) 100 %
24.07.2021 19:06 25,9 C 24,4 C 61 % 1010,1 hPa 0,0 l/m 6,1 km/h (2 Bft) N-NO 14 17,8 C 25,9 C 9,7 km/h (2 Bft) 98 %
_ Min-Zeit 06:02 04:02 14:34 20:06 - 01:58 - - 05:48 06:02 01:58 01:12
Minimum _ 13,9 C 11,7 C 48 % 1009,6 hPa - 0,0 km/h (0 Bft) - - 11,5 C 13,9 C 0,0 km/h (0 Bft) 91 %
_ Max-Zeit 16:30 14:12 06:04 00:00 00:00 11:14 - - 13:38 15:42 09:54 00:28
Maximum _ 29,6 C 42,8 C 88 % 1014,8 hPa 0,0 l/m 20,5 km/h
O-NO (4 Bft)
- - 19,0 C 29,2 C 27,4 km/h
O (4 Bft)
100 %
Durchschnitt _ 22,1 C 24,1 C 68 % 1012,6 hPa #0,0 l/m 6,8 km/h (2 Bft) O-NO - 15,5 C 21,6 C 9,7 km/h (2 Bft) 98 %